Stratton, Maine
Current Conditions -  °F | °C
As of 10:52 AM on Saturday 25 Oct 2014 (Local Time) from KBML Reporting Station
Clear Clear  
Wind Chill: 53°   Ceiling: Unl
Heat Index: 53°   Visibility: 10mi
Dew Point: 38°   Wind: 8mph
Humidity: 57%   Direction: 290°WNW
Pressure: 29.68"   Gusts: NA
Location:  45.14°N, 70.44°W
Report Text: KBML 251452Z AUTO 29007KT 10SM CLR 12/03 A2968 RMK AO2 SLP056 T01170033 58019
Loading
Personal Weather Stations






























Interactive Weather Map
Tropical Storm Tracking
New forecast layout! Learn more

10-Day Weather Forecast

Advertisements
Track Severe Weather on mobile